Airfield :
LOGIN :

Register | Disclaimer

   EN    FR    IT 

 










Legend :    VFR   Marginal VFR   IFR   Intensive IFR   Very Intensive IFR
Visi :
Ceiling :
>= 8 km
>= 3000ft
5 to 8 km
1000 to 3000 ft
1500m to 5 km
500 to 1000 ft
800 to 1500m
200 to 500 ft
< 800m
< 200 ft
Symbols :   Thunderstorms  Fog  Heavy snow  Heavy precipitations  Wind > 20 kt
SIGMETs :     Misc.  Thunderstorms  Icing  Turbulence  Mountain Waves  Volcanic Ashes






- Airport Elevation : 665 ft
- IATA code : NOC


EIKN - Connaught / Knock- Ireland West

CURRENT METAR :
  • 271200Z 32012KT 2500 -RA SCT002 BKN003 10/09 Q1005 NOSIG

EXPIRED METARs :
  • 271130Z 30013KT 280V340 3500 -RADZ SCT003 BKN004 10/09 Q1005 NOSIG
  • 271100Z 30012KT 5000 -RADZ BKN003 BKN005 10/09 Q1006 TEMPO 4000
  • 271030Z 30013KT 6000 -RADZ SCT003 BKN005 09/09 Q1006 TEMPO 4000 BKN003
  • 271000Z 31013KT 280V350 5000 -RADZ FEW005 SCT009 BKN036 09/09 Q1006 TEMPO BKN007
  • 270930Z 31013KT 9999 -RA FEW004 SCT007 BKN039 09/09 Q1006 TEMPO BKN007

TAF TAF EIKN
Valid from the 27 at 12:00 until the 28 at 12:00 UTC


271100Z 2712/2812 30012KT 5000 SCT003 BKN005
TEMPO 2712/2718 4000 -RA BKN003
PROB40
TEMPO 2712/2718 3000 RA
BECMG 2718/2720 9999 BKN015
BECMG 2810/2812 34012KT



MET'MAP, your aeronautical weather chart ! - Copyright ORBIFLY December 2007 - Disclaimer

ORBIFLY MET'MAP TEAM :

Programming & Development : Alexandra Zaïnal
Original concept : Baudouin d'Aumeries
Technical & hardware support : Manuel Goepfert
Assistance : Marc-Olivier Méhu




SOURCES & CREDITS :

   NOAA